createdAt,value
2023-01-31T00:00:58.755Z,98881.69
2023-01-31T00:03:27.099Z,98885.16
2023-01-31T00:05:55.432Z,98897.31
2023-01-31T00:08:23.644Z,98887.97
2023-01-31T00:10:52.299Z,98892.44
2023-01-31T00:13:20.551Z,98894.44
2023-01-31T00:15:48.916Z,98904.00
2023-01-31T00:18:18.889Z,98902.34
2023-01-31T00:20:49.070Z,98902.72
2023-01-31T00:23:17.687Z,98905.19
2023-01-31T00:25:46.066Z,98910.81
2023-01-31T00:28:15.414Z,98912.22
2023-01-31T00:30:43.744Z,98925.84
2023-01-31T00:33:12.161Z,98923.56
2023-01-31T00:35:47.078Z,98924.94
2023-01-31T00:38:15.490Z,98928.22
2023-01-31T00:40:43.750Z,98941.41
2023-01-31T00:43:12.142Z,98932.88
2023-01-31T00:45:42.203Z,98942.41
2023-01-31T00:48:13.112Z,98947.50
2023-01-31T00:50:42.899Z,98941.41
2023-01-31T00:53:11.269Z,98941.59
2023-01-31T00:55:39.545Z,98949.69
2023-01-31T00:58:08.137Z,98950.06
2023-01-31T01:00:37.383Z,98953.06
2023-01-31T01:03:13.755Z,98955.25
2023-01-31T01:05:43.546Z,98955.97
2023-01-31T01:08:12.059Z,98962.91
2023-01-31T01:10:41.649Z,98970.53
2023-01-31T01:13:10.012Z,98965.25
2023-01-31T01:15:40.733Z,98971.53
2023-01-31T01:18:10.428Z,98969.88
2023-01-31T01:20:38.733Z,98991.63
2023-01-31T01:23:08.523Z,98998.53
2023-01-31T01:25:44.128Z,98991.44
2023-01-31T01:28:12.784Z,99001.53
2023-01-31T01:30:41.197Z,99000.91
2023-01-31T01:33:09.800Z,99002.91
2023-01-31T01:35:38.174Z,98997.19
2023-01-31T01:38:07.972Z,98996.19
2023-01-31T01:40:37.828Z,98996.19
2023-01-31T01:43:06.421Z,98996.34
2023-01-31T01:45:35.566Z,98994.72
2023-01-31T01:48:09.103Z,98998.19
2023-01-31T01:50:41.404Z,98995.91
2023-01-31T01:53:16.425Z,99003.97
2023-01-31T01:55:51.949Z,99005.63
2023-01-31T01:58:28.951Z,99007.44
2023-01-31T02:01:00.527Z,99017.97
2023-01-31T02:03:28.991Z,99019.19
2023-01-31T02:06:01.115Z,99014.63
2023-01-31T02:08:33.741Z,99025.16
2023-01-31T02:11:08.759Z,99035.06
2023-01-31T02:13:39.778Z,99029.97
2023-01-31T02:16:08.887Z,99026.50
2023-01-31T02:18:37.622Z,99035.25
2023-01-31T02:21:45.021Z,99044.97
2023-01-31T02:25:03.987Z,99043.16
2023-01-31T02:28:11.829Z,99058.78
2023-01-31T02:31:12.488Z,99059.78
2023-01-31T02:33:47.923Z,99060.16
2023-01-31T02:36:28.754Z,99055.06
2023-01-31T02:39:07.876Z,99063.97
2023-01-31T02:41:50.021Z,99066.78
2023-01-31T02:44:43.773Z,99066.97
2023-01-31T02:47:23.317Z,99081.78
2023-01-31T02:49:58.427Z,99086.22
2023-01-31T02:52:34.812Z,99076.03
2023-01-31T02:55:29.239Z,99068.13
2023-01-31T02:58:01.102Z,99070.94
2023-01-31T03:00:36.693Z,99071.13
2023-01-31T03:03:07.535Z,99071.31
2023-01-31T03:05:37.373Z,99079.22
2023-01-31T03:08:08.107Z,99060.66
2023-01-31T03:11:01.750Z,99072.47
2023-01-31T03:13:46.419Z,99083.03
2023-01-31T03:16:43.112Z,99077.94
2023-01-31T03:19:17.697Z,99071.00
2023-01-31T03:21:50.719Z,99085.38
2023-01-31T03:24:21.236Z,99087.81
2023-01-31T03:26:50.566Z,99107.91
2023-01-31T03:29:19.054Z,99084.19
2023-01-31T03:31:55.203Z,99094.38
2023-01-31T03:34:24.112Z,99098.66
2023-01-31T03:36:59.142Z,99089.13
2023-01-31T03:39:42.678Z,99108.22
2023-01-31T03:42:16.490Z,99093.56
2023-01-31T03:44:55.419Z,99095.22
2023-01-31T03:47:27.655Z,99088.13
2023-01-31T03:49:59.033Z,99089.94
2023-01-31T03:52:48.868Z,99102.13
2023-01-31T03:55:21.458Z,99089.78
2023-01-31T03:57:53.648Z,99101.75
2023-01-31T04:00:24.604Z,99089.56
2023-01-31T04:03:00.341Z,99103.72
2023-01-31T04:05:32.638Z,99104.56
2023-01-31T04:08:05.619Z,99095.03
2023-01-31T04:10:34.101Z,99099.66
2023-01-31T04:13:02.842Z,99103.94
2023-01-31T04:15:31.264Z,99109.38
2023-01-31T04:17:59.570Z,99097.88
2023-01-31T04:20:28.081Z,99101.81
2023-01-31T04:22:56.503Z,99101.16
2023-01-31T04:25:26.236Z,99106.63
2023-01-31T04:27:54.911Z,99098.06
2023-01-31T04:30:23.486Z,99105.97
2023-01-31T04:32:51.727Z,99105.53
2023-01-31T04:35:20.303Z,99108.31
2023-01-31T04:37:48.685Z,99107.84
2023-01-31T04:40:23.928Z,99119.38
2023-01-31T04:42:53.737Z,99109.00
2023-01-31T04:45:25.008Z,99104.91
2023-01-31T04:47:53.355Z,99108.75
2023-01-31T04:50:21.797Z,99102.34
2023-01-31T04:52:51.516Z,99101.84
2023-01-31T04:55:20.970Z,99104.84
2023-01-31T04:58:05.692Z,99100.94
2023-01-31T05:00:35.666Z,99099.47
2023-01-31T05:03:04.127Z,99092.22
2023-01-31T05:05:36.150Z,99090.78
2023-01-31T05:08:05.683Z,99079.13
2023-01-31T05:10:37.655Z,99080.63
2023-01-31T05:13:08.401Z,99082.97
2023-01-31T05:15:38.511Z,99082.66
2023-01-31T05:18:07.262Z,99084.34
2023-01-31T05:20:41.671Z,99085.84
2023-01-31T05:23:10.325Z,99082.72
2023-01-31T05:25:39.324Z,99096.59
2023-01-31T05:28:09.220Z,99094.63
2023-01-31T05:30:47.381Z,99086.44
2023-01-31T05:33:16.040Z,99080.03
2023-01-31T05:35:44.390Z,99097.78
2023-01-31T05:38:12.784Z,99096.19
2023-01-31T05:40:41.712Z,99107.53
2023-01-31T05:43:11.527Z,99103.75
2023-01-31T05:45:40.346Z,99106.22
2023-01-31T05:48:08.817Z,99104.56
2023-01-31T05:50:37.468Z,99103.75
2023-01-31T05:53:06.297Z,99101.28
2023-01-31T05:55:34.771Z,99110.97
2023-01-31T05:58:03.087Z,99110.66
2023-01-31T06:00:33.401Z,99117.19
2023-01-31T06:03:01.803Z,99101.91
2023-01-31T06:05:30.763Z,99102.22
2023-01-31T06:07:59.413Z,99107.63
2023-01-31T06:10:27.960Z,99112.38
2023-01-31T06:12:59.844Z,99108.09
2023-01-31T06:15:28.305Z,99107.25
2023-01-31T06:17:58.278Z,99114.63
2023-01-31T06:20:26.702Z,99111.84
2023-01-31T06:22:55.061Z,99111.50
2023-01-31T06:25:24.322Z,99107.06
2023-01-31T06:27:52.694Z,99103.78
2023-01-31T06:30:21.357Z,99107.88
2023-01-31T06:32:49.870Z,99098.16
2023-01-31T06:35:20.290Z,99105.69
2023-01-31T06:37:48.705Z,99101.25
2023-01-31T06:40:17.356Z,99098.63
2023-01-31T06:42:45.724Z,99096.66
2023-01-31T06:45:15.372Z,99096.13
2023-01-31T06:47:45.833Z,99091.69
2023-01-31T06:50:14.734Z,99093.34
2023-01-31T06:52:45.477Z,99092.19
2023-01-31T06:55:13.833Z,99103.16
2023-01-31T06:57:48.296Z,99103.81
2023-01-31T07:00:18.807Z,99096.56
2023-01-31T07:02:47.226Z,99100.03
2023-01-31T07:05:19.309Z,99109.56
2023-01-31T07:07:50.229Z,99104.94
2023-01-31T07:10:19.203Z,99103.97
2023-01-31T07:12:47.575Z,99094.75
2023-01-31T07:15:15.985Z,99093.78
2023-01-31T07:17:44.535Z,99103.13
2023-01-31T07:20:14.565Z,99114.31
2023-01-31T07:22:43.215Z,99111.16
2023-01-31T07:25:13.105Z,99108.53
2023-01-31T07:27:41.358Z,99106.38
2023-01-31T07:30:11.023Z,99108.19
2023-01-31T07:32:39.985Z,99104.91
2023-01-31T07:35:09.758Z,99114.28
2023-01-31T07:37:39.573Z,99113.94
2023-01-31T07:40:09.493Z,99124.28
2023-01-31T07:42:39.323Z,99118.66
2023-01-31T07:45:22.880Z,99118.31
2023-01-31T07:47:51.953Z,99117.97
2023-01-31T07:50:21.872Z,99111.22
2023-01-31T07:52:50.985Z,99113.19
2023-01-31T07:55:19.790Z,99107.72
2023-01-31T07:57:49.926Z,99106.72
2023-01-31T08:00:36.328Z,99113.13
2023-01-31T08:03:22.070Z,99105.03
2023-01-31T08:05:50.796Z,99107.78
2023-01-31T08:08:19.086Z,99108.91
2023-01-31T08:10:47.797Z,99111.19
2023-01-31T08:13:18.752Z,99108.31
2023-01-31T08:15:47.070Z,99112.50
2023-01-31T08:18:15.421Z,99105.56
2023-01-31T08:20:44.096Z,99115.19
2023-01-31T08:23:12.524Z,99111.22
2023-01-31T08:25:41.264Z,99109.66
2023-01-31T08:28:09.905Z,99114.22
2023-01-31T08:30:43.864Z,99108.44
2023-01-31T08:33:13.340Z,99107.25
2023-01-31T08:35:41.611Z,99104.34
2023-01-31T08:38:16.301Z,99103.63
2023-01-31T08:40:46.463Z,99107.72
2023-01-31T08:43:15.043Z,99096.81
2023-01-31T08:45:46.913Z,99093.16
2023-01-31T08:48:15.272Z,99092.59
2023-01-31T08:50:49.699Z,99085.72
2023-01-31T08:53:19.561Z,99070.06
2023-01-31T08:55:47.896Z,99076.34
2023-01-31T08:58:16.285Z,99068.97
2023-01-31T09:00:47.616Z,99063.84
2023-01-31T09:03:18.194Z,99068.66
2023-01-31T09:05:47.500Z,99068.06
2023-01-31T09:08:15.798Z,99068.06
2023-01-31T09:10:53.076Z,99051.59
2023-01-31T09:13:21.816Z,99051.84
2023-01-31T09:15:59.241Z,99047.03
2023-01-31T09:18:27.783Z,99037.47
2023-01-31T09:20:56.102Z,99038.94
2023-01-31T09:23:24.673Z,99034.28
2023-01-31T09:25:57.243Z,99029.25
2023-01-31T09:28:26.256Z,99033.00
2023-01-31T09:30:56.369Z,99032.28
2023-01-31T09:33:24.776Z,99033.16
2023-01-31T09:36:00.172Z,99029.41
2023-01-31T09:38:28.688Z,99023.41
2023-01-31T09:40:58.915Z,99021.84
2023-01-31T09:43:33.462Z,99016.56
2023-01-31T09:46:10.493Z,99016.19
2023-01-31T09:48:45.625Z,99005.63
2023-01-31T09:51:15.796Z,99000.16
2023-01-31T09:53:47.444Z,98994.88
2023-01-31T09:56:24.491Z,98977.84
2023-01-31T09:59:00.948Z,98976.47
2023-01-31T10:01:37.473Z,98978.09
2023-01-31T10:04:25.879Z,98966.31
2023-01-31T10:07:00.551Z,98963.69
2023-01-31T10:09:35.268Z,98959.03
2023-01-31T10:12:14.172Z,98943.81
2023-01-31T10:14:50.516Z,98951.19
2023-01-31T10:17:25.702Z,98949.16
2023-01-31T10:19:58.723Z,98947.13
2023-01-31T10:22:33.698Z,98948.59
2023-01-31T10:25:11.038Z,98946.94
2023-01-31T10:27:46.740Z,98941.25
2023-01-31T10:30:20.469Z,98951.03
2023-01-31T10:32:57.189Z,98936.00
2023-01-31T10:35:31.855Z,98935.25
2023-01-31T10:38:05.839Z,98931.22
2023-01-31T10:40:37.251Z,98921.53
2023-01-31T10:43:15.447Z,98897.53
2023-01-31T10:45:45.232Z,98890.66
2023-01-31T10:48:20.151Z,98897.19
2023-01-31T10:50:59.526Z,98894.19
2023-01-31T10:53:45.064Z,98887.47
2023-01-31T10:56:23.743Z,98877.13
2023-01-31T10:58:53.364Z,98877.34
2023-01-31T11:01:22.366Z,98871.69
2023-01-31T11:03:57.847Z,98862.78
2023-01-31T11:06:26.854Z,98862.63
2023-01-31T11:08:59.412Z,98860.03
2023-01-31T11:11:30.577Z,98861.66
2023-01-31T11:14:01.884Z,98864.94
2023-01-31T11:16:33.469Z,98853.59
2023-01-31T11:19:21.579Z,98848.53
2023-01-31T11:21:51.895Z,98841.66
2023-01-31T11:24:23.686Z,98833.31
2023-01-31T11:26:56.737Z,98832.53
2023-01-31T11:29:29.523Z,98830.09
2023-01-31T11:32:00.019Z,98826.63
2023-01-31T11:34:31.836Z,98826.84
2023-01-31T11:37:07.197Z,98837.25
2023-01-31T11:39:39.786Z,98830.75
2023-01-31T11:42:13.034Z,98838.25
2023-01-31T11:44:56.943Z,98832.38
2023-01-31T11:47:33.445Z,98830.09
2023-01-31T11:50:05.858Z,98825.19
2023-01-31T11:52:36.269Z,98829.25
2023-01-31T11:55:09.844Z,98823.34
2023-01-31T11:57:40.796Z,98832.53
2023-01-31T12:00:23.704Z,98828.25
2023-01-31T12:02:59.682Z,98821.09
2023-01-31T12:05:38.231Z,98813.78
2023-01-31T12:08:07.284Z,98808.91
2023-01-31T12:10:42.665Z,98807.88
2023-01-31T12:13:19.226Z,98801.59
2023-01-31T12:15:56.162Z,98802.00
2023-01-31T12:18:52.234Z,98793.22
2023-01-31T12:21:37.327Z,98785.50
2023-01-31T12:24:20.312Z,98781.00
2023-01-31T12:26:52.726Z,98766.13
2023-01-31T12:29:33.922Z,98768.78
2023-01-31T12:32:22.314Z,98764.91
2023-01-31T12:35:13.639Z,98741.69
2023-01-31T12:37:50.666Z,98741.69
2023-01-31T12:40:35.774Z,98733.97
2023-01-31T12:43:09.701Z,98732.94
2023-01-31T12:45:54.309Z,98733.94
2023-01-31T12:48:46.456Z,98729.00
2023-01-31T12:51:30.072Z,98719.84
2023-01-31T12:54:19.962Z,98720.03
2023-01-31T12:57:03.316Z,98718.19
2023-01-31T13:00:00.715Z,98716.78
2023-01-31T13:02:41.164Z,98699.66
2023-01-31T13:05:30.265Z,98699.66
2023-01-31T13:08:11.469Z,98697.84
2023-01-31T13:10:46.519Z,98692.97
2023-01-31T13:13:20.795Z,98690.53
2023-01-31T13:15:54.276Z,98675.66
2023-01-31T13:18:25.602Z,98673.03
2023-01-31T13:20:58.368Z,98665.91
2023-01-31T13:23:31.791Z,98667.13
2023-01-31T13:26:09.265Z,98660.41
2023-01-31T13:28:43.554Z,98646.13
2023-01-31T13:31:26.961Z,98641.28
2023-01-31T13:34:01.905Z,98642.47
2023-01-31T13:36:34.935Z,98631.91
2023-01-31T13:39:10.128Z,98619.69
2023-01-31T13:41:40.950Z,98626.22
2023-01-31T13:44:17.644Z,98613.81
2023-01-31T13:46:52.826Z,98618.69
2023-01-31T13:49:28.627Z,98608.72
2023-01-31T13:52:00.237Z,98596.31
2023-01-31T13:54:33.694Z,98586.56
2023-01-31T13:57:04.505Z,98587.19
2023-01-31T13:59:37.929Z,98576.81
2023-01-31T14:02:18.322Z,98573.16
2023-01-31T14:04:47.843Z,98572.91
2023-01-31T14:07:22.177Z,98568.44
2023-01-31T14:10:41.049Z,98568.44
2023-01-31T14:13:43.806Z,98561.75
2023-01-31T14:16:58.907Z,98555.22
2023-01-31T14:20:03.712Z,98539.97
2023-01-31T14:22:36.900Z,98535.50
2023-01-31T14:25:15.252Z,98529.00
2023-01-31T14:28:01.916Z,98534.47
2023-01-31T14:30:48.230Z,98529.59
2023-01-31T14:33:22.561Z,98525.13
2023-01-31T14:36:24.631Z,98507.84
2023-01-31T14:39:12.211Z,98503.97
2023-01-31T14:42:02.408Z,98501.56
2023-01-31T14:44:42.404Z,98495.44
2023-01-31T14:47:29.564Z,98491.59
2023-01-31T14:50:25.394Z,98484.47
2023-01-31T14:53:31.235Z,98482.44
2023-01-31T14:56:24.446Z,98470.44
2023-01-31T14:58:53.162Z,98469.44
2023-01-31T15:01:24.165Z,98470.84
2023-01-31T15:03:59.063Z,98465.34
2023-01-31T15:06:30.335Z,98452.94
2023-01-31T15:09:28.073Z,98454.34
2023-01-31T15:11:58.210Z,98447.44
2023-01-31T15:14:41.282Z,98445.81
2023-01-31T15:17:34.567Z,98447.25
2023-01-31T15:20:18.650Z,98436.84
2023-01-31T15:22:48.445Z,98436.84
2023-01-31T15:25:27.996Z,98423.63
2023-01-31T15:27:58.171Z,98421.59
2023-01-31T15:30:29.317Z,98411.00
2023-01-31T15:33:02.185Z,98392.94
2023-01-31T15:35:45.696Z,98402.88
2023-01-31T15:38:26.328Z,98396.53
2023-01-31T15:41:09.903Z,98384.56
2023-01-31T15:43:39.888Z,98377.66
2023-01-31T15:46:20.109Z,98385.31
2023-01-31T15:48:53.021Z,98383.06
2023-01-31T15:51:23.961Z,98379.41
2023-01-31T15:54:03.223Z,98380.81
2023-01-31T15:56:33.479Z,98370.47
2023-01-31T15:59:12.554Z,98372.91
2023-01-31T16:01:41.301Z,98368.25
2023-01-31T16:04:09.743Z,98363.59
2023-01-31T16:06:41.271Z,98371.50
2023-01-31T16:09:25.469Z,98361.00
2023-01-31T16:14:44.568Z,98357.41
2023-01-31T16:17:14.436Z,98355.56
2023-01-31T16:20:09.896Z,98341.59
2023-01-31T16:22:40.226Z,98341.78
2023-01-31T16:25:20.589Z,98327.38
2023-01-31T16:27:49.325Z,98328.00
2023-01-31T16:30:20.349Z,98319.47
2023-01-31T16:32:51.671Z,98318.88
2023-01-31T16:35:26.973Z,98313.97
2023-01-31T16:38:22.231Z,98312.38
2023-01-31T16:41:01.914Z,98312.16
2023-01-31T16:43:35.483Z,98299.16
2023-01-31T16:46:06.961Z,98305.03
2023-01-31T16:48:38.452Z,98297.31
2023-01-31T16:51:36.663Z,98297.53
2023-01-31T16:54:21.953Z,98283.53
2023-01-31T16:57:08.511Z,98272.16
2023-01-31T16:59:49.648Z,98259.78
2023-01-31T17:02:25.500Z,98255.91
2023-01-31T17:04:56.708Z,98245.34
2023-01-31T17:07:31.733Z,98236.25
2023-01-31T17:10:05.153Z,98232.56
2023-01-31T17:12:36.861Z,98228.50
2023-01-31T17:15:15.389Z,98221.81
2023-01-31T17:17:48.719Z,98218.19
2023-01-31T17:20:18.258Z,98207.59
2023-01-31T17:22:56.835Z,98208.03
2023-01-31T17:25:35.024Z,98203.78
2023-01-31T17:28:03.861Z,98204.19
2023-01-31T17:30:34.711Z,98200.31
2023-01-31T17:33:05.377Z,98194.66
2023-01-31T17:35:37.901Z,98190.41
2023-01-31T17:38:07.697Z,98197.28
2023-01-31T17:40:40.578Z,98193.63
2023-01-31T17:43:09.148Z,98195.25
2023-01-31T17:45:40.614Z,98198.69
2023-01-31T17:48:14.400Z,98193.41
2023-01-31T17:50:54.340Z,98187.94
2023-01-31T17:53:23.207Z,98176.16
2023-01-31T17:56:05.727Z,98178.00
2023-01-31T17:58:34.405Z,98168.25
2023-01-31T18:01:02.766Z,98167.03
2023-01-31T18:03:32.360Z,98168.44
2023-01-31T18:06:05.902Z,98161.72
2023-01-31T18:08:35.111Z,98157.88
2023-01-31T18:11:27.028Z,98153.19
2023-01-31T18:13:55.402Z,98149.75
2023-01-31T18:16:26.015Z,98145.84
2023-01-31T18:18:54.467Z,98147.47
2023-01-31T18:21:24.268Z,98138.75
2023-01-31T18:23:53.378Z,98142.41
2023-01-31T18:26:27.405Z,98137.13
2023-01-31T18:28:57.724Z,98129.00
2023-01-31T18:31:26.722Z,98131.22
2023-01-31T18:33:55.415Z,98128.19
2023-01-31T18:36:25.649Z,98118.44
2023-01-31T18:38:54.900Z,98118.59
2023-01-31T18:41:24.723Z,98116.97
2023-01-31T18:43:52.910Z,98109.47
2023-01-31T18:46:21.732Z,98105.19
2023-01-31T18:48:51.177Z,98102.34
2023-01-31T18:51:19.585Z,98101.91
2023-01-31T18:53:48.923Z,98099.06
2023-01-31T18:56:20.458Z,98096.81
2023-01-31T18:58:51.191Z,98096.59
2023-01-31T19:01:25.197Z,98085.41
2023-01-31T19:03:55.314Z,98088.41
2023-01-31T19:06:28.280Z,98083.34
2023-01-31T19:08:57.911Z,98081.75
2023-01-31T19:11:27.838Z,98080.13
2023-01-31T19:13:58.341Z,98068.53
2023-01-31T19:16:28.384Z,98073.84
2023-01-31T19:18:57.262Z,98074.84
2023-01-31T19:21:32.677Z,98058.56
2023-01-31T19:24:02.483Z,98068.72
2023-01-31T19:26:31.903Z,98054.69
2023-01-31T19:29:04.729Z,98055.72
2023-01-31T19:31:34.927Z,98059.56
2023-01-31T19:34:04.983Z,98068.28
2023-01-31T19:36:35.823Z,98059.75
2023-01-31T19:39:06.959Z,98060.97
2023-01-31T19:41:38.698Z,98058.47
2023-01-31T19:44:08.661Z,98052.19
2023-01-31T19:46:38.911Z,98045.50
2023-01-31T19:49:07.597Z,98043.50
2023-01-31T19:51:38.158Z,98047.38
2023-01-31T19:54:09.002Z,98042.09
2023-01-31T19:56:38.463Z,98035.38
2023-01-31T19:59:08.227Z,98038.63
2023-01-31T20:01:36.867Z,98034.16
2023-01-31T20:04:05.314Z,98041.69
2023-01-31T20:06:36.725Z,98043.53
2023-01-31T20:09:07.585Z,98044.53
2023-01-31T20:11:36.927Z,98036.25
2023-01-31T20:14:06.705Z,98035.44
2023-01-31T20:16:37.458Z,98035.66
2023-01-31T20:19:06.895Z,98033.81
2023-01-31T20:21:35.383Z,98036.03
2023-01-31T20:24:03.744Z,98040.66
2023-01-31T20:26:32.099Z,98033.34
2023-01-31T20:29:00.349Z,98018.53
2023-01-31T20:31:31.259Z,98028.66
2023-01-31T20:34:06.951Z,98033.13
2023-01-31T20:36:36.986Z,98039.66
2023-01-31T20:39:07.718Z,98039.06
2023-01-31T20:41:37.724Z,98046.97
2023-01-31T20:44:06.832Z,98051.84
2023-01-31T20:46:35.567Z,98049.19
2023-01-31T20:49:08.411Z,98040.25
2023-01-31T20:51:39.071Z,98038.41
2023-01-31T20:54:07.504Z,98040.66
2023-01-31T20:56:35.710Z,98034.38
2023-01-31T20:59:04.057Z,98030.09
2023-01-31T21:01:32.370Z,98029.50
2023-01-31T21:04:03.894Z,98023.66
2023-01-31T21:06:33.686Z,98014.72
2023-01-31T21:09:01.888Z,98015.75
2023-01-31T21:11:30.233Z,98017.63
2023-01-31T21:13:58.545Z,98019.22
2023-01-31T21:16:26.869Z,98021.50
2023-01-31T21:18:56.622Z,98026.19
2023-01-31T21:21:25.424Z,98020.50
2023-01-31T21:23:57.193Z,98025.56
2023-01-31T21:26:27.027Z,98038.38
2023-01-31T21:28:55.475Z,98036.56
2023-01-31T21:31:26.201Z,98041.84
2023-01-31T21:33:54.671Z,98040.66
2023-01-31T21:36:24.928Z,98046.50
2023-01-31T21:38:57.779Z,98041.66
2023-01-31T21:41:44.677Z,98045.75
2023-01-31T21:44:13.004Z,98042.09
2023-01-31T21:46:41.588Z,98039.09
2023-01-31T21:49:11.261Z,98048.03
2023-01-31T21:51:40.274Z,98048.03
2023-01-31T21:54:10.305Z,98041.94
2023-01-31T21:56:38.578Z,98042.97
2023-01-31T21:59:07.789Z,98046.41
2023-01-31T22:01:37.576Z,98042.34
2023-01-31T22:04:05.974Z,98040.06
2023-01-31T22:06:38.043Z,98045.75
2023-01-31T22:09:08.072Z,98049.38
2023-01-31T22:11:38.377Z,98041.63
2023-01-31T22:14:09.071Z,98046.50
2023-01-31T22:16:37.509Z,98042.41
2023-01-31T22:19:06.588Z,98042.41
2023-01-31T22:21:36.616Z,98049.31
2023-01-31T22:24:07.331Z,98055.63
2023-01-31T22:26:38.793Z,98053.19
2023-01-31T22:29:09.336Z,98058.47
2023-01-31T22:31:38.513Z,98058.47
2023-01-31T22:34:08.853Z,98065.78
2023-01-31T22:36:37.548Z,98063.16
2023-01-31T22:39:06.586Z,98066.59
2023-01-31T22:41:34.915Z,98065.59
2023-01-31T22:44:04.630Z,98064.75
2023-01-31T22:46:33.101Z,98063.34
2023-01-31T22:49:01.858Z,98068.63
2023-01-31T22:51:30.753Z,98070.66
2023-01-31T22:53:59.887Z,98069.25
2023-01-31T22:56:29.913Z,98068.44
2023-01-31T22:59:00.451Z,98073.72
2023-01-31T23:01:32.470Z,98072.91
2023-01-31T23:04:03.701Z,98070.03
2023-01-31T23:06:32.196Z,98074.31
2023-01-31T23:09:00.574Z,98076.13
2023-01-31T23:11:28.791Z,98078.78
2023-01-31T23:13:58.092Z,98067.81
2023-01-31T23:16:48.092Z,98083.31
2023-01-31T23:19:17.721Z,98082.94
2023-01-31T23:21:46.277Z,98070.97
2023-01-31T23:24:16.584Z,98079.31
2023-01-31T23:26:45.462Z,98085.84
2023-01-31T23:29:14.155Z,98082.38
2023-01-31T23:31:42.766Z,98081.97
2023-01-31T23:34:11.146Z,98090.50
2023-01-31T23:36:44.516Z,98085.25
2023-01-31T23:39:12.822Z,98089.31
2023-01-31T23:41:41.326Z,98079.78
2023-01-31T23:44:09.950Z,98076.69
2023-01-31T23:46:38.559Z,98083.41
2023-01-31T23:49:17.014Z,98077.91
2023-01-31T23:51:46.697Z,98084.59
2023-01-31T23:54:15.189Z,98086.81
2023-01-31T23:56:48.099Z,98085.59
2023-01-31T23:59:16.725Z,98087.63
